• Join FlightAware (Why Join?)
  • Login
  • US Flag 
10:12PM EST


 

Airport Tracker/Info


-or-


 

Live Flight TrackerFlight Track Log ✈ ERR703 ✈ 03-Nov-2013 ✈ PAFA / FAI - PANC

Flight Track Log - Related Links

Times and Time Zones

All times are in EST time to prevent confusion due to time zone crossing. See the ERR703 flight status page for this flight to view local times or setup timezone preferences in your user account.

Time Position Orientation Groundspeed Altitude Reporting Facility
EST Latitude Longitude Course Direction KTS MPH feet Rate Location/Type
01:08PM 64.7167 -148.1333 239° Southwest 160 184 7,100  Level Anchorage Center
01:09PM 64.6833 -148.2000 221° Southwest 170 196 8,800 1,560 Climbing Anchorage Center
01:10PM 64.6333 -148.2333 196° South 180 207 10,300 1,500 Climbing Anchorage Center
01:11PM 64.4170 -148.1192 217° Southwest  Level Estimated
01:11PM 64.5833 -148.2833 203° Southwest 190 219 11,900  Level Anchorage Center
01:12PM 64.3601 -148.1561 216° Southwest  Level Estimated
01:12PM 64.5333 -148.3167 196° South 200 230 13,300  Level Anchorage Center
01:13PM 64.3296 -148.2730 239° Southwest  Level FlightAware Approximate
01:13PM 64.4833 -148.3667 203° Southwest 210 242 14,900  Level Anchorage Center
01:14PM 64.4333 -148.4000 196° South 200 230 16,400 1,260 Climbing Anchorage Center
01:15PM 64.3833 -148.4500 203° Southwest 200 230 17,500 1,440 Climbing Anchorage Center
01:16PM 64.3167 -148.5000 198° South 200 230 19,400 1,380 Climbing Anchorage Center
01:17PM 64.2667 -148.5333 196° South 200 230 20,300 960 Climbing Anchorage Center
01:18PM 64.2167 -148.5667 196° South 200 230 21,400 1,020 Climbing Anchorage Center
01:19PM 64.1667 -148.6167 204° Southwest 200 230 22,400 780 Climbing Anchorage Center
01:20PM 64.1167 -148.6667 204° Southwest 210 242 23,000 300 Climbing Anchorage Center
01:21PM 64.0500 -148.7000 192° South 220 253 23,000  Level Anchorage Center
01:22PM 64.0000 -148.7500 204° Southwest 240 276 23,000  Level Anchorage Center
01:23PM 63.9333 -148.8000 198° South 250 288 23,000  Level Anchorage Center
01:24PM 63.8667 -148.8667 204° Southwest 240 276 23,000  Level Anchorage Center
01:25PM 63.8000 -148.9000 192° South 250 288 23,000  Level Anchorage Center
01:26PM 63.7333 -148.9667 204° Southwest 260 299 23,000  Level Anchorage Center
01:27PM 63.6667 -149.0167 198° South 250 288 23,000  Level Anchorage Center
01:28PM 63.6000 -149.0667 198° South 250 288 23,000  Level Anchorage Center
01:29PM 63.5333 -149.1167 198° South 250 288 23,000  Level Anchorage Center
01:30PM 63.4667 -149.1667 199° South 260 299 23,000  Level Anchorage Center
01:31PM 63.4000 -149.2167 199° South 240 276 23,000  Level Anchorage Center
01:32PM 63.3333 -149.2667 199° South 230 265 23,000  Level Anchorage Center
01:33PM 63.2833 -149.3167 204° Southwest 230 265 23,100  Climbing Anchorage Center
01:34PM 63.2167 -149.3500 193° South 230 265 23,000  Descending Anchorage Center
01:35PM 63.1667 -149.4000 204° Southwest 220 253 23,100  Climbing Anchorage Center
01:36PM 63.1000 -149.4500 199° South 230 265 23,000 -60 Descending Anchorage Center
01:37PM 63.0333 -149.4833 193° South 220 253 23,000  Level Anchorage Center
01:38PM 62.9833 -149.5500 211° Southwest 240 276 23,000  Level Anchorage Center
01:39PM 62.9167 -149.5833 193° South 230 265 23,000  Level Anchorage Center
01:40PM 62.8500 -149.6333 199° South 260 299 23,000  Level Anchorage Center
01:41PM 62.7833 -149.6667 193° South 240 276 23,000  Level Anchorage Center
01:42PM 62.7167 -149.7167 199° South 250 288 23,000  Level Anchorage Center
01:43PM 62.6500 -149.7667 199° South 240 276 23,000  Level Anchorage Center
01:44PM 62.5833 -149.8167 199° South 240 276 23,000  Level Anchorage Center
01:45PM 62.5167 -149.8667 199° South 250 288 23,000  Level Anchorage Center
01:46PM 62.4500 -149.9167 199° South 250 288 23,000  Level Anchorage Center
01:47PM 62.3833 -149.9667 199° South 250 288 23,000 -180 Level Anchorage Center
01:48PM 62.3167 -150.0000 193° South 250 288 22,700 -1,020 Descending Anchorage Center
01:49PM 62.2500 -150.0500 199° South 260 299 21,000 -1,620 Descending Anchorage Center
01:50PM 62.1833 -150.1000 199° South 260 299 19,500 -1,620 Descending Anchorage Center
01:51PM 62.1167 -150.1500 199° South 260 299 17,800 -1,440 Descending Anchorage Center
01:52PM 62.0500 -150.1833 193° South 260 299 16,700 -1,200 Descending Anchorage Center
01:53PM 61.9833 -150.2333 199° South 250 288 15,500 -1,200 Descending Anchorage Center
01:55PM 61.8801 -150.3120 196° South  Level FlightAware Approximate
02:02PM 61.4768 -150.2767 154° Southeast  Level FlightAware Approximate
02:03PM 61.4212 -150.2212 154° Southeast  Level FlightAware Approximate
02:04PM 61.3643 -150.1761 149° Southeast  Level FlightAware Approximate
02:05PM 61.3110 -150.1122 159° South  Level FlightAware Approximate
02:06PM 61.2536 -150.0662 159° South  Level FlightAware Approximate
02:07PM 61.1974 -150.0141 154° Southeast  Level FlightAware Approximate
02:08PM 61.1741 -149.9982 154° Southeast  Level Estimated
02:09PM 61.1741 -149.9982 154° Southeast  Level Estimated
02:10PM 61.1741 -149.9982 154° Southeast  Level Estimated
02:11PM 61.1741 -149.9982 154° Southeast  Level Estimated
02:12PM 61.1741 -149.9982 154° Southeast  Level Estimated
02:13PM 61.1741 -149.9982 154° Southeast  Level Estimated
02:14PM 61.1741 -149.9982 154° Southeast  Level Estimated
02:15PM 61.1741 -149.9982 154° Southeast  Level Estimated
02:16PM 61.1741 -149.9982 154° Southeast  Level Estimated
02:17PM 61.1741 -149.9982 154° Southeast  Level Estimated
02:18PM 61.1741 -149.9982 154° Southeast  Level Estimated
02:19PM 61.1741 -149.9982 154° Southeast  Level Estimated
02:20PM 61.1741 -149.9982 154° Southeast  Level Estimated
02:21PM 61.1741 -149.9982 154° Southeast  Level Estimated
02:22PM 61.1741 -149.9982 154° Southeast  Level Estimated
02:23PM 61.1741 -149.9982 154° Southeast  Level Estimated